sensor_id;sensor_type;location;lat;lon;timestamp;temperature;humidity
18932;DHT22;9598;50.954;3.112;2023-02-28T00:03:36;4.00;99.90
18932;DHT22;9598;50.954;3.112;2023-02-28T00:08:39;4.00;99.90
18932;DHT22;9598;50.954;3.112;2023-02-28T00:13:44;4.00;99.90
18932;DHT22;9598;50.954;3.112;2023-02-28T00:18:47;3.90;99.90
18932;DHT22;9598;50.954;3.112;2023-02-28T00:23:51;3.90;99.90
18932;DHT22;9598;50.954;3.112;2023-02-28T00:28:53;3.90;99.90
18932;DHT22;9598;50.954;3.112;2023-02-28T00:33:57;3.90;99.90
18932;DHT22;9598;50.954;3.112;2023-02-28T00:39:00;3.80;99.90
18932;DHT22;9598;50.954;3.112;2023-02-28T00:44:03;3.80;99.90
18932;DHT22;9598;50.954;3.112;2023-02-28T00:49:06;3.80;99.90
18932;DHT22;9598;50.954;3.112;2023-02-28T00:54:11;3.80;99.90
18932;DHT22;9598;50.954;3.112;2023-02-28T00:59:14;3.80;99.90
18932;DHT22;9598;50.954;3.112;2023-02-28T01:04:16;3.80;99.90
18932;DHT22;9598;50.954;3.112;2023-02-28T01:09:20;3.70;99.90
18932;DHT22;9598;50.954;3.112;2023-02-28T01:14:22;3.70;99.90
18932;DHT22;9598;50.954;3.112;2023-02-28T01:19:25;3.70;99.90
18932;DHT22;9598;50.954;3.112;2023-02-28T01:24:28;3.70;99.90
18932;DHT22;9598;50.954;3.112;2023-02-28T01:29:30;3.70;99.90
18932;DHT22;9598;50.954;3.112;2023-02-28T01:34:32;3.70;99.90
18932;DHT22;9598;50.954;3.112;2023-02-28T01:39:36;3.60;99.90
18932;DHT22;9598;50.954;3.112;2023-02-28T01:44:58;3.60;99.90
18932;DHT22;9598;50.954;3.112;2023-02-28T01:50:04;3.50;99.90
18932;DHT22;9598;50.954;3.112;2023-02-28T01:55:10;3.40;99.90
18932;DHT22;9598;50.954;3.112;2023-02-28T02:00:15;3.40;99.90
18932;DHT22;9598;50.954;3.112;2023-02-28T02:05:24;3.40;99.90
18932;DHT22;9598;50.954;3.112;2023-02-28T02:10:32;3.40;99.90
18932;DHT22;9598;50.954;3.112;2023-02-28T02:15:40;3.40;99.90
18932;DHT22;9598;50.954;3.112;2023-02-28T02:26:54;3.50;99.90
18932;DHT22;9598;50.954;3.112;2023-02-28T02:32:41;3.50;99.90
18932;DHT22;9598;50.954;3.112;2023-02-28T02:37:52;3.40;99.90
18932;DHT22;9598;50.954;3.112;2023-02-28T02:43:01;3.40;99.90
18932;DHT22;9598;50.954;3.112;2023-02-28T02:48:09;3.30;99.90
18932;DHT22;9598;50.954;3.112;2023-02-28T02:53:14;3.30;99.90
18932;DHT22;9598;50.954;3.112;2023-02-28T02:58:22;3.30;99.90
18932;DHT22;9598;50.954;3.112;2023-02-28T03:03:27;3.20;99.90
18932;DHT22;9598;50.954;3.112;2023-02-28T03:08:36;3.20;99.90
18932;DHT22;9598;50.954;3.112;2023-02-28T03:13:54;3.20;99.90
18932;DHT22;9598;50.954;3.112;2023-02-28T03:19:18;3.20;99.90
18932;DHT22;9598;50.954;3.112;2023-02-28T03:24:29;3.20;99.90
18932;DHT22;9598;50.954;3.112;2023-02-28T03:29:35;3.10;99.90
18932;DHT22;9598;50.954;3.112;2023-02-28T03:34:41;3.10;99.90
18932;DHT22;9598;50.954;3.112;2023-02-28T03:39:49;3.10;99.90
18932;DHT22;9598;50.954;3.112;2023-02-28T03:44:54;3.20;99.90
18932;DHT22;9598;50.954;3.112;2023-02-28T03:50:00;3.10;99.90
18932;DHT22;9598;50.954;3.112;2023-02-28T03:55:10;3.10;99.90
18932;DHT22;9598;50.954;3.112;2023-02-28T04:00:19;3.10;99.90
18932;DHT22;9598;50.954;3.112;2023-02-28T04:05:22;3.00;99.90
18932;DHT22;9598;50.954;3.112;2023-02-28T04:10:26;3.00;99.90
18932;DHT22;9598;50.954;3.112;2023-02-28T04:15:28;2.90;99.90
18932;DHT22;9598;50.954;3.112;2023-02-28T04:20:30;3.00;99.90
18932;DHT22;9598;50.954;3.112;2023-02-28T04:25:34;2.90;99.90
18932;DHT22;9598;50.954;3.112;2023-02-28T04:30:37;2.90;99.90
18932;DHT22;9598;50.954;3.112;2023-02-28T04:35:40;2.90;99.90
18932;DHT22;9598;50.954;3.112;2023-02-28T04:40:43;3.00;99.90
18932;DHT22;9598;50.954;3.112;2023-02-28T04:45:45;3.00;99.90
18932;DHT22;9598;50.954;3.112;2023-02-28T04:50:47;3.00;99.90
18932;DHT22;9598;50.954;3.112;2023-02-28T04:55:51;3.10;99.90
18932;DHT22;9598;50.954;3.112;2023-02-28T05:00:54;3.20;99.90
18932;DHT22;9598;50.954;3.112;2023-02-28T05:05:56;3.20;99.90
18932;DHT22;9598;50.954;3.112;2023-02-28T05:10:59;3.20;99.90
18932;DHT22;9598;50.954;3.112;2023-02-28T05:16:02;3.20;99.90
18932;DHT22;9598;50.954;3.112;2023-02-28T05:21:04;3.30;99.90
18932;DHT22;9598;50.954;3.112;2023-02-28T05:26:08;3.30;99.90
18932;DHT22;9598;50.954;3.112;2023-02-28T05:31:11;3.40;99.90
18932;DHT22;9598;50.954;3.112;2023-02-28T05:36:13;3.40;99.90
18932;DHT22;9598;50.954;3.112;2023-02-28T05:41:18;3.50;99.90
18932;DHT22;9598;50.954;3.112;2023-02-28T05:46:21;3.50;99.90
18932;DHT22;9598;50.954;3.112;2023-02-28T05:51:23;3.60;99.90
18932;DHT22;9598;50.954;3.112;2023-02-28T05:56:26;3.60;99.90
18932;DHT22;9598;50.954;3.112;2023-02-28T06:01:34;3.60;99.90
18932;DHT22;9598;50.954;3.112;2023-02-28T06:06:37;3.60;99.90
18932;DHT22;9598;50.954;3.112;2023-02-28T06:11:41;3.70;99.90
18932;DHT22;9598;50.954;3.112;2023-02-28T06:16:43;3.70;99.90
18932;DHT22;9598;50.954;3.112;2023-02-28T06:21:50;3.70;99.90
18932;DHT22;9598;50.954;3.112;2023-02-28T06:26:54;3.70;99.90
18932;DHT22;9598;50.954;3.112;2023-02-28T06:31:56;3.70;99.90
18932;DHT22;9598;50.954;3.112;2023-02-28T06:36:58;3.70;99.90
18932;DHT22;9598;50.954;3.112;2023-02-28T06:42:04;3.80;99.90
18932;DHT22;9598;50.954;3.112;2023-02-28T06:47:06;3.80;99.90
18932;DHT22;9598;50.954;3.112;2023-02-28T06:52:08;3.90;99.90
18932;DHT22;9598;50.954;3.112;2023-02-28T06:57:12;3.90;99.90
18932;DHT22;9598;50.954;3.112;2023-02-28T07:02:14;3.90;99.90
18932;DHT22;9598;50.954;3.112;2023-02-28T07:07:16;3.90;99.90
18932;DHT22;9598;50.954;3.112;2023-02-28T07:12:19;4.00;99.90
18932;DHT22;9598;50.954;3.112;2023-02-28T07:17:22;4.00;99.90
18932;DHT22;9598;50.954;3.112;2023-02-28T07:22:24;4.10;99.90
18932;DHT22;9598;50.954;3.112;2023-02-28T07:27:27;4.10;99.90
18932;DHT22;9598;50.954;3.112;2023-02-28T07:32:29;4.20;99.90
18932;DHT22;9598;50.954;3.112;2023-02-28T07:37:31;4.20;99.90
18932;DHT22;9598;50.954;3.112;2023-02-28T07:42:38;4.20;99.90
18932;DHT22;9598;50.954;3.112;2023-02-28T07:47:42;4.20;99.90
18932;DHT22;9598;50.954;3.112;2023-02-28T07:52:44;4.20;99.90
18932;DHT22;9598;50.954;3.112;2023-02-28T07:57:47;4.30;99.90
18932;DHT22;9598;50.954;3.112;2023-02-28T08:02:49;4.30;99.90
18932;DHT22;9598;50.954;3.112;2023-02-28T08:07:51;4.30;99.90
18932;DHT22;9598;50.954;3.112;2023-02-28T08:12:55;4.40;99.90
18932;DHT22;9598;50.954;3.112;2023-02-28T08:17:57;4.40;99.90
18932;DHT22;9598;50.954;3.112;2023-02-28T08:23:00;4.40;99.90
18932;DHT22;9598;50.954;3.112;2023-02-28T08:28:04;4.40;99.90
18932;DHT22;9598;50.954;3.112;2023-02-28T08:33:06;4.40;99.90
18932;DHT22;9598;50.954;3.112;2023-02-28T08:38:08;4.10;99.90
18932;DHT22;9598;50.954;3.112;2023-02-28T08:43:11;4.10;99.90
18932;DHT22;9598;50.954;3.112;2023-02-28T08:48:13;4.10;99.90
18932;DHT22;9598;50.954;3.112;2023-02-28T08:53:16;4.10;99.90
18932;DHT22;9598;50.954;3.112;2023-02-28T08:58:19;4.10;99.90
18932;DHT22;9598;50.954;3.112;2023-02-28T09:03:22;4.10;99.90
18932;DHT22;9598;50.954;3.112;2023-02-28T09:08:25;4.10;99.90
18932;DHT22;9598;50.954;3.112;2023-02-28T09:13:30;4.20;99.90
18932;DHT22;9598;50.954;3.112;2023-02-28T09:18:34;4.20;99.90
18932;DHT22;9598;50.954;3.112;2023-02-28T09:23:36;4.20;99.90
18932;DHT22;9598;50.954;3.112;2023-02-28T09:28:41;4.20;99.90
18932;DHT22;9598;50.954;3.112;2023-02-28T09:33:43;4.20;99.90
18932;DHT22;9598;50.954;3.112;2023-02-28T09:38:45;4.20;99.90
18932;DHT22;9598;50.954;3.112;2023-02-28T09:43:51;4.30;99.90
18932;DHT22;9598;50.954;3.112;2023-02-28T09:48:56;4.40;99.90
18932;DHT22;9598;50.954;3.112;2023-02-28T09:53:59;4.40;99.90
18932;DHT22;9598;50.954;3.112;2023-02-28T09:59:09;4.30;99.90
18932;DHT22;9598;50.954;3.112;2023-02-28T10:04:21;4.20;99.90
18932;DHT22;9598;50.954;3.112;2023-02-28T10:09:31;4.20;99.90
18932;DHT22;9598;50.954;3.112;2023-02-28T10:14:37;4.30;99.90
18932;DHT22;9598;50.954;3.112;2023-02-28T10:19:44;4.40;99.90
18932;DHT22;9598;50.954;3.112;2023-02-28T10:24:50;4.40;99.90
18932;DHT22;9598;50.954;3.112;2023-02-28T10:29:55;4.40;99.90
18932;DHT22;9598;50.954;3.112;2023-02-28T10:35:00;4.40;99.90
18932;DHT22;9598;50.954;3.112;2023-02-28T10:40:26;4.50;99.90
18932;DHT22;9598;50.954;3.112;2023-02-28T10:45:31;4.60;99.90
18932;DHT22;9598;50.954;3.112;2023-02-28T10:50:43;4.70;99.90
18932;DHT22;9598;50.954;3.112;2023-02-28T10:55:56;4.70;99.90
18932;DHT22;9598;50.954;3.112;2023-02-28T11:01:00;4.60;99.90
18932;DHT22;9598;50.954;3.112;2023-02-28T11:06:07;4.70;99.90
18932;DHT22;9598;50.954;3.112;2023-02-28T11:11:09;4.70;99.90
18932;DHT22;9598;50.954;3.112;2023-02-28T11:16:14;4.70;99.90
18932;DHT22;9598;50.954;3.112;2023-02-28T11:21:23;4.80;99.90
18932;DHT22;9598;50.954;3.112;2023-02-28T11:26:41;4.90;99.90
18932;DHT22;9598;50.954;3.112;2023-02-28T11:32:00;5.00;99.90
18932;DHT22;9598;50.954;3.112;2023-02-28T11:37:09;5.10;99.90
18932;DHT22;9598;50.954;3.112;2023-02-28T11:42:25;5.20;99.90
18932;DHT22;9598;50.954;3.112;2023-02-28T11:47:40;5.20;99.90
18932;DHT22;9598;50.954;3.112;2023-02-28T11:52:48;5.40;99.90
18932;DHT22;9598;50.954;3.112;2023-02-28T11:58:03;5.60;99.90
18932;DHT22;9598;50.954;3.112;2023-02-28T12:03:19;5.70;99.90
18932;DHT22;9598;50.954;3.112;2023-02-28T12:08:29;5.90;99.90
18932;DHT22;9598;50.954;3.112;2023-02-28T12:13:45;5.90;99.90
18932;DHT22;9598;50.954;3.112;2023-02-28T12:18:57;6.10;99.90
18932;DHT22;9598;50.954;3.112;2023-02-28T12:24:14;6.10;99.90
18932;DHT22;9598;50.954;3.112;2023-02-28T12:29:21;6.10;99.90
18932;DHT22;9598;50.954;3.112;2023-02-28T12:34:31;6.20;99.90
18932;DHT22;9598;50.954;3.112;2023-02-28T12:39:38;6.30;99.90
18932;DHT22;9598;50.954;3.112;2023-02-28T12:44:46;6.40;99.90
18932;DHT22;9598;50.954;3.112;2023-02-28T12:49:55;6.60;99.90
18932;DHT22;9598;50.954;3.112;2023-02-28T12:55:05;6.50;99.90
18932;DHT22;9598;50.954;3.112;2023-02-28T13:00:13;6.60;99.90
18932;DHT22;9598;50.954;3.112;2023-02-28T13:05:52;6.70;99.90
18932;DHT22;9598;50.954;3.112;2023-02-28T13:10:58;6.80;99.90
18932;DHT22;9598;50.954;3.112;2023-02-28T13:16:06;6.90;99.90
18932;DHT22;9598;50.954;3.112;2023-02-28T13:21:23;7.00;99.90
18932;DHT22;9598;50.954;3.112;2023-02-28T13:32:35;7.10;99.90
18932;DHT22;9598;50.954;3.112;2023-02-28T13:37:43;7.10;99.90
18932;DHT22;9598;50.954;3.112;2023-02-28T13:42:49;7.20;99.90
18932;DHT22;9598;50.954;3.112;2023-02-28T13:47:53;7.30;99.90
18932;DHT22;9598;50.954;3.112;2023-02-28T13:53:26;7.30;99.90
18932;DHT22;9598;50.954;3.112;2023-02-28T13:58:43;7.50;99.90
18932;DHT22;9598;50.954;3.112;2023-02-28T14:04:14;7.50;99.90
18932;DHT22;9598;50.954;3.112;2023-02-28T14:09:25;7.50;99.90
18932;DHT22;9598;50.954;3.112;2023-02-28T14:14:54;7.50;99.90
18932;DHT22;9598;50.954;3.112;2023-02-28T14:19:57;7.40;99.90
18932;DHT22;9598;50.954;3.112;2023-02-28T14:25:09;7.20;99.90
18932;DHT22;9598;50.954;3.112;2023-02-28T14:30:37;7.20;99.90
18932;DHT22;9598;50.954;3.112;2023-02-28T14:35:54;7.10;99.90
18932;DHT22;9598;50.954;3.112;2023-02-28T14:41:04;7.20;99.90
18932;DHT22;9598;50.954;3.112;2023-02-28T14:46:07;7.10;99.90
18932;DHT22;9598;50.954;3.112;2023-02-28T14:51:09;7.20;99.90
18932;DHT22;9598;50.954;3.112;2023-02-28T14:56:21;7.10;99.90
18932;DHT22;9598;50.954;3.112;2023-02-28T15:01:24;7.10;99.90
18932;DHT22;9598;50.954;3.112;2023-02-28T15:06:27;7.00;99.90
18932;DHT22;9598;50.954;3.112;2023-02-28T15:11:31;6.90;99.90
18932;DHT22;9598;50.954;3.112;2023-02-28T15:16:36;6.80;99.90
18932;DHT22;9598;50.954;3.112;2023-02-28T15:21:41;6.80;99.90
18932;DHT22;9598;50.954;3.112;2023-02-28T15:26:46;6.80;99.90
18932;DHT22;9598;50.954;3.112;2023-02-28T15:31:56;6.70;99.90
18932;DHT22;9598;50.954;3.112;2023-02-28T15:36:59;6.70;99.90
18932;DHT22;9598;50.954;3.112;2023-02-28T15:42:16;6.70;99.90
18932;DHT22;9598;50.954;3.112;2023-02-28T15:47:21;6.70;99.90
18932;DHT22;9598;50.954;3.112;2023-02-28T15:52:27;6.70;99.90
18932;DHT22;9598;50.954;3.112;2023-02-28T15:57:31;6.60;99.90
18932;DHT22;9598;50.954;3.112;2023-02-28T16:02:35;6.50;99.90
18932;DHT22;9598;50.954;3.112;2023-02-28T16:07:39;6.50;99.90
18932;DHT22;9598;50.954;3.112;2023-02-28T16:12:43;6.40;99.90
18932;DHT22;9598;50.954;3.112;2023-02-28T16:17:45;6.40;99.90
18932;DHT22;9598;50.954;3.112;2023-02-28T16:22:48;6.40;99.90
18932;DHT22;9598;50.954;3.112;2023-02-28T16:27:52;6.30;99.90
18932;DHT22;9598;50.954;3.112;2023-02-28T16:32:56;6.30;99.90
18932;DHT22;9598;50.954;3.112;2023-02-28T16:37:58;6.30;99.90
18932;DHT22;9598;50.954;3.112;2023-02-28T16:43:05;6.30;99.90
18932;DHT22;9598;50.954;3.112;2023-02-28T16:48:13;6.20;99.90
18932;DHT22;9598;50.954;3.112;2023-02-28T16:53:15;6.20;99.90
18932;DHT22;9598;50.954;3.112;2023-02-28T16:58:19;6.20;99.90
18932;DHT22;9598;50.954;3.112;2023-02-28T17:03:24;6.10;99.90
18932;DHT22;9598;50.954;3.112;2023-02-28T17:08:26;6.10;99.90
18932;DHT22;9598;50.954;3.112;2023-02-28T17:13:31;6.00;99.90
18932;DHT22;9598;50.954;3.112;2023-02-28T17:18:35;6.00;99.90
18932;DHT22;9598;50.954;3.112;2023-02-28T17:23:37;5.90;99.90
18932;DHT22;9598;50.954;3.112;2023-02-28T17:28:40;5.80;99.90
18932;DHT22;9598;50.954;3.112;2023-02-28T17:33:43;5.70;99.90
18932;DHT22;9598;50.954;3.112;2023-02-28T17:38:45;5.70;99.90
18932;DHT22;9598;50.954;3.112;2023-02-28T17:43:48;5.60;99.90
18932;DHT22;9598;50.954;3.112;2023-02-28T17:48:52;5.60;99.90
18932;DHT22;9598;50.954;3.112;2023-02-28T17:53:55;5.60;99.90
18932;DHT22;9598;50.954;3.112;2023-02-28T17:58:58;5.60;99.90
18932;DHT22;9598;50.954;3.112;2023-02-28T18:04:01;5.50;99.90
18932;DHT22;9598;50.954;3.112;2023-02-28T18:09:04;5.50;99.90
18932;DHT22;9598;50.954;3.112;2023-02-28T18:14:08;5.50;99.90
18932;DHT22;9598;50.954;3.112;2023-02-28T18:19:10;5.50;99.90
18932;DHT22;9598;50.954;3.112;2023-02-28T18:24:16;5.50;99.90
18932;DHT22;9598;50.954;3.112;2023-02-28T18:29:22;5.60;99.90
18932;DHT22;9598;50.954;3.112;2023-02-28T18:34:25;5.50;99.90
18932;DHT22;9598;50.954;3.112;2023-02-28T18:39:29;5.50;99.90
18932;DHT22;9598;50.954;3.112;2023-02-28T18:44:33;5.50;99.90
18932;DHT22;9598;50.954;3.112;2023-02-28T18:49:35;5.50;99.90
18932;DHT22;9598;50.954;3.112;2023-02-28T18:54:37;5.40;99.90
18932;DHT22;9598;50.954;3.112;2023-02-28T18:59:41;5.40;99.90
18932;DHT22;9598;50.954;3.112;2023-02-28T19:04:43;5.40;99.90
18932;DHT22;9598;50.954;3.112;2023-02-28T19:09:45;5.40;99.90
18932;DHT22;9598;50.954;3.112;2023-02-28T19:14:49;5.40;99.90
18932;DHT22;9598;50.954;3.112;2023-02-28T19:19:52;5.30;99.90
18932;DHT22;9598;50.954;3.112;2023-02-28T19:24:54;5.30;99.90
18932;DHT22;9598;50.954;3.112;2023-02-28T19:29:58;5.20;99.90
18932;DHT22;9598;50.954;3.112;2023-02-28T19:35:01;5.20;99.90
18932;DHT22;9598;50.954;3.112;2023-02-28T19:40:05;5.10;99.90
18932;DHT22;9598;50.954;3.112;2023-02-28T19:45:10;5.00;99.90
18932;DHT22;9598;50.954;3.112;2023-02-28T19:50:15;5.00;99.90
18932;DHT22;9598;50.954;3.112;2023-02-28T19:55:17;5.00;99.90
18932;DHT22;9598;50.954;3.112;2023-02-28T20:00:21;4.90;99.90
18932;DHT22;9598;50.954;3.112;2023-02-28T20:05:23;4.80;99.90
18932;DHT22;9598;50.954;3.112;2023-02-28T20:10:25;4.80;99.90
18932;DHT22;9598;50.954;3.112;2023-02-28T20:15:29;4.80;99.90
18932;DHT22;9598;50.954;3.112;2023-02-28T20:20:32;4.70;99.90
18932;DHT22;9598;50.954;3.112;2023-02-28T20:25:38;4.60;99.90
18932;DHT22;9598;50.954;3.112;2023-02-28T20:30:42;4.60;99.90
18932;DHT22;9598;50.954;3.112;2023-02-28T20:35:45;4.50;99.90
18932;DHT22;9598;50.954;3.112;2023-02-28T20:40:48;4.40;99.90
18932;DHT22;9598;50.954;3.112;2023-02-28T20:45:57;4.30;99.90
18932;DHT22;9598;50.954;3.112;2023-02-28T20:51:03;4.30;99.90
18932;DHT22;9598;50.954;3.112;2023-02-28T20:56:07;4.30;99.90
18932;DHT22;9598;50.954;3.112;2023-02-28T21:01:13;4.30;99.90
18932;DHT22;9598;50.954;3.112;2023-02-28T21:06:18;4.20;99.90
18932;DHT22;9598;50.954;3.112;2023-02-28T21:11:22;4.20;99.90
18932;DHT22;9598;50.954;3.112;2023-02-28T21:16:26;4.10;99.90
18932;DHT22;9598;50.954;3.112;2023-02-28T21:21:30;4.00;99.90
18932;DHT22;9598;50.954;3.112;2023-02-28T21:26:32;4.00;99.90
18932;DHT22;9598;50.954;3.112;2023-02-28T21:31:36;4.00;99.90
18932;DHT22;9598;50.954;3.112;2023-02-28T21:36:40;3.90;99.90
18932;DHT22;9598;50.954;3.112;2023-02-28T21:41:45;3.90;99.90
18932;DHT22;9598;50.954;3.112;2023-02-28T21:46:51;3.90;99.90
18932;DHT22;9598;50.954;3.112;2023-02-28T21:51:54;3.80;99.90
18932;DHT22;9598;50.954;3.112;2023-02-28T21:56:56;3.90;99.90
18932;DHT22;9598;50.954;3.112;2023-02-28T22:02:00;3.80;99.90
18932;DHT22;9598;50.954;3.112;2023-02-28T22:07:05;3.80;99.90
18932;DHT22;9598;50.954;3.112;2023-02-28T22:12:07;3.70;99.90
18932;DHT22;9598;50.954;3.112;2023-02-28T22:17:10;3.70;99.90
18932;DHT22;9598;50.954;3.112;2023-02-28T22:22:12;3.70;99.90
18932;DHT22;9598;50.954;3.112;2023-02-28T22:27:14;3.60;99.90
18932;DHT22;9598;50.954;3.112;2023-02-28T22:32:18;3.50;99.90
18932;DHT22;9598;50.954;3.112;2023-02-28T22:37:20;3.50;99.90
18932;DHT22;9598;50.954;3.112;2023-02-28T22:42:23;3.50;99.90
18932;DHT22;9598;50.954;3.112;2023-02-28T22:47:26;3.40;99.90
18932;DHT22;9598;50.954;3.112;2023-02-28T22:52:28;3.40;99.90
18932;DHT22;9598;50.954;3.112;2023-02-28T22:57:30;3.40;99.90
18932;DHT22;9598;50.954;3.112;2023-02-28T23:02:34;3.30;99.90
18932;DHT22;9598;50.954;3.112;2023-02-28T23:07:37;3.30;99.90
18932;DHT22;9598;50.954;3.112;2023-02-28T23:12:40;3.30;99.90
18932;DHT22;9598;50.954;3.112;2023-02-28T23:17:51;3.30;99.90
18932;DHT22;9598;50.954;3.112;2023-02-28T23:22:53;3.20;99.90
18932;DHT22;9598;50.954;3.112;2023-02-28T23:27:55;3.20;99.90
18932;DHT22;9598;50.954;3.112;2023-02-28T23:32:59;3.20;99.90
18932;DHT22;9598;50.954;3.112;2023-02-28T23:38:01;3.20;99.90
18932;DHT22;9598;50.954;3.112;2023-02-28T23:43:04;3.20;99.90
18932;DHT22;9598;50.954;3.112;2023-02-28T23:48:08;3.10;99.90
18932;DHT22;9598;50.954;3.112;2023-02-28T23:53:10;3.10;99.90
18932;DHT22;9598;50.954;3.112;2023-02-28T23:58:13;3.10;99.90
